Succasunna, New Jersey
Current Conditions -  °F | °C
As of 2:45 PM on Thursday 18 Dec 2014 (Local Time) from KMMU Reporting Station
Broken Clouds Broken Clouds  
Wind Chill: 37°   Ceiling: 4000
Heat Index: 43°   Visibility: 10mi
Dew Point: 25°   Wind: 12mph
Humidity: 49%   Direction: 310°NW
Pressure: 29.96"   Gusts: 22mph
Location:  40.87°N, 74.64°W
Report Text: KMMU 181945Z 31010G19KT 10SM BKN040 06/M04 A2996
Loading
Personal Weather Stations






























Interactive Weather Map New forecast layout! Learn more

10-Day Weather Forecast

Advertisements
Track Severe Weather on mobile